Aviation Digital Data Service (ADDS)

Output produced by METARs form (0518 UTC 19 February 2019)
found at http://www.aviationweather.gov/metar/data/
 
METAR text: ZYTX 190500Z 23003MPS 2000 -SN OVC033 00/M01 Q1018 BECMG TL0630 3000
Conditions at: ZYTX (SHENYANG/TAOKIAN, CN) observed 0500 UTC 19 February 2019
Temperature: 0.0°C (32°F)
Dewpoint: -1.0°C (30°F) [RH = 93%]
Pressure (altimeter): 30.06 inches Hg (1018.0 mb)
Winds: from the SW (230 degrees) at 7 MPH (6 knots; 3.1 m/s)
Visibility: 1.24 miles (2.00 km)
Ceiling: 3300 feet AGL
Clouds: overcast cloud deck at 3300 feet AGL
Weather: -SN  (light snow)

METAR text: ZYTX 190430Z 24003MPS 190V280 1000 R24/1300N -SN OVC033 M00/M02 Q1019 NOSIG
Conditions at: ZYTX (SHENYANG/TAOKIAN, CN) observed 0430 UTC 19 February 2019
Temperature: 0.0°C (32°F)
Dewpoint: -2.0°C (28°F) [RH = 86%]
Pressure (altimeter): 30.09 inches Hg (1019.0 mb)
Winds: from the WSW (240 degrees) at 7 MPH (6 knots; 3.1 m/s)
Visibility: 0.62 miles (1.00 km)
Ceiling: 3300 feet AGL
Clouds: overcast cloud deck at 3300 feet AGL
Weather: -SN  (light snow)

METAR text: ZYTX 190400Z 21003MPS 2000 -SN OVC033 M00/M03 Q1019 BECMG TL0530 3000
Conditions at: ZYTX (SHENYANG/TAOKIAN, CN) observed 0400 UTC 19 February 2019
Temperature: 0.0°C (32°F)
Dewpoint: -3.0°C (27°F) [RH = 80%]
Pressure (altimeter): 30.09 inches Hg (1019.0 mb)
Winds: from the SSW (210 degrees) at 7 MPH (6 knots; 3.1 m/s)
Visibility: 1.24 miles (2.00 km)
Ceiling: 3300 feet AGL
Clouds: overcast cloud deck at 3300 feet AGL
Weather: -SN  (light snow)

METAR text: ZYTX 190330Z 22003MPS 160V250 3500 -SN OVC033 00/M05 Q1019 NOSIG
Conditions at: ZYTX (SHENYANG/TAOKIAN, CN) observed 0330 UTC 19 February 2019
Temperature: 0.0°C (32°F)
Dewpoint: -5.0°C (23°F) [RH = 69%]
Pressure (altimeter): 30.09 inches Hg (1019.0 mb)
Winds: from the SW (220 degrees) at 7 MPH (6 knots; 3.1 m/s)
Visibility: 2.17 miles (3.49 km)
Ceiling: 3300 feet AGL
Clouds: overcast cloud deck at 3300 feet AGL
Weather: -SN  (light snow)

METAR text: ZYTX 190300Z 23004MPS 7000 -SN OVC033 01/M06 Q1019 NOSIG
Conditions at: ZYTX (SHENYANG/TAOKIAN, CN) observed 0300 UTC 19 February 2019
Temperature: 1.0°C (34°F)
Dewpoint: -6.0°C (21°F) [RH = 59%]
Pressure (altimeter): 30.09 inches Hg (1019.0 mb)
Winds: from the SW (230 degrees) at 9 MPH (8 knots; 4.1 m/s)
Visibility: 4 miles ( 7 km)
Ceiling: 3300 feet AGL
Clouds: overcast cloud deck at 3300 feet AGL
Weather: -SN  (light snow)

METAR text: ZYTX 190230Z 21005MPS 9999 -SN OVC033 01/M08 Q1019 NOSIG
Conditions at: ZYTX (SHENYANG/TAOKIAN, CN) observed 0230 UTC 19 February 2019
Temperature: 1.0°C (34°F)
Dewpoint: -8.0°C (18°F) [RH = 51%]
Pressure (altimeter): 30.09 inches Hg (1019.0 mb)
Winds: from the SSW (210 degrees) at 12 MPH (10 knots; 5.1 m/s)
Visibility: 6 or more miles (10+ km)
Ceiling: 3300 feet AGL
Clouds: overcast cloud deck at 3300 feet AGL
Weather: -SN  (light snow)

METAR text: ZYTX 190200Z 21004MPS 190V250 9999 OVC040 02/M09 Q1019 NOSIG
Conditions at: ZYTX (SHENYANG/TAOKIAN, CN) observed 0200 UTC 19 February 2019
Temperature: 2.0°C (36°F)
Dewpoint: -9.0°C (16°F) [RH = 44%]
Pressure (altimeter): 30.09 inches Hg (1019.0 mb)
Winds: from the SSW (210 degrees) at 9 MPH (8 knots; 4.1 m/s)
Visibility: 6 or more miles (10+ km)
Ceiling: 4000 feet AGL
Clouds: overcast cloud deck at 4000 feet AGL
Weather: no significant weather observed at this time

METAR text: ZYTX 190130Z 21004MPS CAVOK 02/M09 Q1019 NOSIG
Conditions at: ZYTX (SHENYANG/TAOKIAN, CN) observed 0130 UTC 19 February 2019
Temperature: 2.0°C (36°F)
Dewpoint: -9.0°C (16°F) [RH = 44%]
Pressure (altimeter): 30.09 inches Hg (1019.0 mb)
Winds: from the SSW (210 degrees) at 9 MPH (8 knots; 4.1 m/s)
Visibility: 6 or more miles (10+ km)
Ceiling: ceiling and visibility are OK
Clouds: unknown
Weather: no significant weather observed at this time

METAR text: ZYTX 190100Z 27002MPS 230V320 CAVOK 02/M10 Q1019 NOSIG
Conditions at: ZYTX (SHENYANG/TAOKIAN, CN) observed 0100 UTC 19 February 2019
Temperature: 2.0°C (36°F)
Dewpoint: -10.0°C (14°F) [RH = 41%]
Pressure (altimeter): 30.09 inches Hg (1019.0 mb)
Winds: from the W (270 degrees) at 5 MPH (4 knots; 2.1 m/s)
Visibility: 6 or more miles (10+ km)
Ceiling: ceiling and visibility are OK
Clouds: unknown
Weather: no significant weather observed at this time

METAR text: ZYTX 190030Z VRB01MPS CAVOK 01/M10 Q1019 NOSIG
Conditions at: ZYTX (SHENYANG/TAOKIAN, CN) observed 0030 UTC 19 February 2019
Temperature: 1.0°C (34°F)
Dewpoint: -10.0°C (14°F) [RH = 44%]
Pressure (altimeter): 30.09 inches Hg (1019.0 mb)
Winds: variable direction winds at 2 MPH (2 knots; 1.0 m/s)
Visibility: 6 or more miles (10+ km)
Ceiling: ceiling and visibility are OK
Clouds: unknown
Weather: no significant weather observed at this time

METAR text: ZYTX 190000Z 14002MPS CAVOK 00/M10 Q1019 NOSIG
Conditions at: ZYTX (SHENYANG/TAOKIAN, CN) observed 0000 UTC 19 February 2019
Temperature: 0.0°C (32°F)
Dewpoint: -10.0°C (14°F) [RH = 47%]
Pressure (altimeter): 30.09 inches Hg (1019.0 mb)
Winds: from the SE (140 degrees) at 5 MPH (4 knots; 2.1 m/s)
Visibility: 6 or more miles (10+ km)
Ceiling: ceiling and visibility are OK
Clouds: unknown
Weather: no significant weather observed at this time

METAR text: ZYTX 182330Z VRB01MPS 8000 NSC M01/M10 Q1019 NOSIG
Conditions at: ZYTX (SHENYANG/TAOKIAN, CN) observed 2330 UTC 18 February 2019
Temperature: -1.0°C (30°F)
Dewpoint: -10.0°C (14°F) [RH = 50%]
Pressure (altimeter): 30.09 inches Hg (1019.0 mb)
Winds: variable direction winds at 2 MPH (2 knots; 1.0 m/s)
Visibility: 5 miles ( 8 km)
Ceiling: at least 12,000 feet AGL
Clouds: sky clear below 12,000 feet AGL
Weather: no significant weather observed at this time

METAR text: ZYTX 182300Z 17002MPS 8000 NSC M01/M11 Q1019 NOSIG
Conditions at: ZYTX (SHENYANG/TAOKIAN, CN) observed 2300 UTC 18 February 2019
Temperature: -1.0°C (30°F)
Dewpoint: -11.0°C (12°F) [RH = 47%]
Pressure (altimeter): 30.09 inches Hg (1019.0 mb)
Winds: from the S (170 degrees) at 5 MPH (4 knots; 2.1 m/s)
Visibility: 5 miles ( 8 km)
Ceiling: at least 12,000 feet AGL
Clouds: sky clear below 12,000 feet AGL
Weather: no significant weather observed at this time

METAR text: ZYTX 182230Z 16001MPS 8000 NSC M02/M11 Q1019 NOSIG
Conditions at: ZYTX (SHENYANG/TAOKIAN, CN) observed 2230 UTC 18 February 2019
Temperature: -2.0°C (28°F)
Dewpoint: -11.0°C (12°F) [RH = 50%]
Pressure (altimeter): 30.09 inches Hg (1019.0 mb)
Winds: from the SSE (160 degrees) at 2 MPH (2 knots; 1.0 m/s)
Visibility: 5 miles ( 8 km)
Ceiling: at least 12,000 feet AGL
Clouds: sky clear below 12,000 feet AGL
Weather: no significant weather observed at this time

METAR text: ZYTX 182200Z 14001MPS 8000 NSC M01/M11 Q1019 NOSIG
Conditions at: ZYTX (SHENYANG/TAOKIAN, CN) observed 2200 UTC 18 February 2019
Temperature: -1.0°C (30°F)
Dewpoint: -11.0°C (12°F) [RH = 47%]
Pressure (altimeter): 30.09 inches Hg (1019.0 mb)
Winds: from the SE (140 degrees) at 2 MPH (2 knots; 1.0 m/s)
Visibility: 5 miles ( 8 km)
Ceiling: at least 12,000 feet AGL
Clouds: sky clear below 12,000 feet AGL
Weather: no significant weather observed at this time

METAR text: ZYTX 182130Z 14001MPS 8000 NSC M01/M11 Q1019 NOSIG
Conditions at: ZYTX (SHENYANG/TAOKIAN, CN) observed 2130 UTC 18 February 2019
Temperature: -1.0°C (30°F)
Dewpoint: -11.0°C (12°F) [RH = 47%]
Pressure (altimeter): 30.09 inches Hg (1019.0 mb)
Winds: from the SE (140 degrees) at 2 MPH (2 knots; 1.0 m/s)
Visibility: 5 miles ( 8 km)
Ceiling: at least 12,000 feet AGL
Clouds: sky clear below 12,000 feet AGL
Weather: no significant weather observed at this time

METAR text: ZYTX 182100Z 15002MPS 8000 NSC M01/M11 Q1019 NOSIG
Conditions at: ZYTX (SHENYANG/TAOKIAN, CN) observed 2100 UTC 18 February 2019
Temperature: -1.0°C (30°F)
Dewpoint: -11.0°C (12°F) [RH = 47%]
Pressure (altimeter): 30.09 inches Hg (1019.0 mb)
Winds: from the SSE (150 degrees) at 5 MPH (4 knots; 2.1 m/s)
Visibility: 5 miles ( 8 km)
Ceiling: at least 12,000 feet AGL
Clouds: sky clear below 12,000 feet AGL
Weather: no significant weather observed at this time

METAR text: ZYTX 182030Z 16002MPS 130V190 8000 NSC M01/M12 Q1019 NOSIG
Conditions at: ZYTX (SHENYANG/TAOKIAN, CN) observed 2030 UTC 18 February 2019
Temperature: -1.0°C (30°F)
Dewpoint: -12.0°C (10°F) [RH = 43%]
Pressure (altimeter): 30.09 inches Hg (1019.0 mb)
Winds: from the SSE (160 degrees) at 5 MPH (4 knots; 2.1 m/s)
Visibility: 5 miles ( 8 km)
Ceiling: at least 12,000 feet AGL
Clouds: sky clear below 12,000 feet AGL
Weather: no significant weather observed at this time

METAR text: ZYTX 182000Z 15002MPS 8000 NSC M01/M11 Q1019 NOSIG
Conditions at: ZYTX (SHENYANG/TAOKIAN, CN) observed 2000 UTC 18 February 2019
Temperature: -1.0°C (30°F)
Dewpoint: -11.0°C (12°F) [RH = 47%]
Pressure (altimeter): 30.09 inches Hg (1019.0 mb)
Winds: from the SSE (150 degrees) at 5 MPH (4 knots; 2.1 m/s)
Visibility: 5 miles ( 8 km)
Ceiling: at least 12,000 feet AGL
Clouds: sky clear below 12,000 feet AGL
Weather: no significant weather observed at this time

METAR text: ZYTX 181930Z 16001MPS 8000 NSC M01/M12 Q1019 NOSIG
Conditions at: ZYTX (SHENYANG/TAOKIAN, CN) observed 1930 UTC 18 February 2019
Temperature: -1.0°C (30°F)
Dewpoint: -12.0°C (10°F) [RH = 43%]
Pressure (altimeter): 30.09 inches Hg (1019.0 mb)
Winds: from the SSE (160 degrees) at 2 MPH (2 knots; 1.0 m/s)
Visibility: 5 miles ( 8 km)
Ceiling: at least 12,000 feet AGL
Clouds: sky clear below 12,000 feet AGL
Weather: no significant weather observed at this time

METAR text: ZYTX 181900Z 15001MPS 8000 NSC M01/M12 Q1019 NOSIG
Conditions at: ZYTX (SHENYANG/TAOKIAN, CN) observed 1900 UTC 18 February 2019
Temperature: -1.0°C (30°F)
Dewpoint: -12.0°C (10°F) [RH = 43%]
Pressure (altimeter): 30.09 inches Hg (1019.0 mb)
Winds: from the SSE (150 degrees) at 2 MPH (2 knots; 1.0 m/s)
Visibility: 5 miles ( 8 km)
Ceiling: at least 12,000 feet AGL
Clouds: sky clear below 12,000 feet AGL
Weather: no significant weather observed at this time

METAR text: ZYTX 181830Z 14001MPS 6000 NSC M01/M12 Q1020 NOSIG
Conditions at: ZYTX (SHENYANG/TAOKIAN, CN) observed 1830 UTC 18 February 2019
Temperature: -1.0°C (30°F)
Dewpoint: -12.0°C (10°F) [RH = 43%]
Pressure (altimeter): 30.12 inches Hg (1020.0 mb)
Winds: from the SE (140 degrees) at 2 MPH (2 knots; 1.0 m/s)
Visibility: 4 miles ( 6 km)
Ceiling: at least 12,000 feet AGL
Clouds: sky clear below 12,000 feet AGL
Weather: no significant weather observed at this time

METAR text: ZYTX 181800Z 14002MPS 6000 NSC M01/M12 Q1020 NOSIG
Conditions at: ZYTX (SHENYANG/TAOKIAN, CN) observed 1800 UTC 18 February 2019
Temperature: -1.0°C (30°F)
Dewpoint: -12.0°C (10°F) [RH = 43%]
Pressure (altimeter): 30.12 inches Hg (1020.0 mb)
Winds: from the SE (140 degrees) at 5 MPH (4 knots; 2.1 m/s)
Visibility: 4 miles ( 6 km)
Ceiling: at least 12,000 feet AGL
Clouds: sky clear below 12,000 feet AGL
Weather: no significant weather observed at this time

METAR text: ZYTX 181730Z 15001MPS 6000 NSC M01/M12 Q1020 NOSIG
Conditions at: ZYTX (SHENYANG/TAOKIAN, CN) observed 1730 UTC 18 February 2019
Temperature: -1.0°C (30°F)
Dewpoint: -12.0°C (10°F) [RH = 43%]
Pressure (altimeter): 30.12 inches Hg (1020.0 mb)
Winds: from the SSE (150 degrees) at 2 MPH (2 knots; 1.0 m/s)
Visibility: 4 miles ( 6 km)
Ceiling: at least 12,000 feet AGL
Clouds: sky clear below 12,000 feet AGL
Weather: no significant weather observed at this time

METAR text: ZYTX 181700Z 15001MPS 8000 NSC M00/M12 Q1021 NOSIG
Conditions at: ZYTX (SHENYANG/TAOKIAN, CN) observed 1700 UTC 18 February 2019
Temperature: 0.0°C (32°F)
Dewpoint: -12.0°C (10°F) [RH = 40%]
Pressure (altimeter): 30.15 inches Hg (1021.0 mb)
Winds: from the SSE (150 degrees) at 2 MPH (2 knots; 1.0 m/s)
Visibility: 5 miles ( 8 km)
Ceiling: at least 12,000 feet AGL
Clouds: sky clear below 12,000 feet AGL
Weather: no significant weather observed at this time

METAR text: ZYTX 181630Z 15001MPS 7000 NSC M01/M12 Q1021 NOSIG
Conditions at: ZYTX (SHENYANG/TAOKIAN, CN) observed 1630 UTC 18 February 2019
Temperature: -1.0°C (30°F)
Dewpoint: -12.0°C (10°F) [RH = 43%]
Pressure (altimeter): 30.15 inches Hg (1021.0 mb)
Winds: from the SSE (150 degrees) at 2 MPH (2 knots; 1.0 m/s)
Visibility: 4 miles ( 7 km)
Ceiling: at least 12,000 feet AGL
Clouds: sky clear below 12,000 feet AGL
Weather: no significant weather observed at this time

METAR text: ZYTX 181600Z 17002MPS 7000 NSC M00/M12 Q1021 NOSIG
Conditions at: ZYTX (SHENYANG/TAOKIAN, CN) observed 1600 UTC 18 February 2019
Temperature: 0.0°C (32°F)
Dewpoint: -12.0°C (10°F) [RH = 40%]
Pressure (altimeter): 30.15 inches Hg (1021.0 mb)
Winds: from the S (170 degrees) at 5 MPH (4 knots; 2.1 m/s)
Visibility: 4 miles ( 7 km)
Ceiling: at least 12,000 feet AGL
Clouds: sky clear below 12,000 feet AGL
Weather: no significant weather observed at this time

METAR text: ZYTX 181530Z 15001MPS 6000 NSC M01/M12 Q1021 NOSIG
Conditions at: ZYTX (SHENYANG/TAOKIAN, CN) observed 1530 UTC 18 February 2019
Temperature: -1.0°C (30°F)
Dewpoint: -12.0°C (10°F) [RH = 43%]
Pressure (altimeter): 30.15 inches Hg (1021.0 mb)
Winds: from the SSE (150 degrees) at 2 MPH (2 knots; 1.0 m/s)
Visibility: 4 miles ( 6 km)
Ceiling: at least 12,000 feet AGL
Clouds: sky clear below 12,000 feet AGL
Weather: no significant weather observed at this time

METAR text: ZYTX 181500Z 17002MPS 6000 NSC M01/M12 Q1021 NOSIG
Conditions at: ZYTX (SHENYANG/TAOKIAN, CN) observed 1500 UTC 18 February 2019
Temperature: -1.0°C (30°F)
Dewpoint: -12.0°C (10°F) [RH = 43%]
Pressure (altimeter): 30.15 inches Hg (1021.0 mb)
Winds: from the S (170 degrees) at 5 MPH (4 knots; 2.1 m/s)
Visibility: 4 miles ( 6 km)
Ceiling: at least 12,000 feet AGL
Clouds: sky clear below 12,000 feet AGL
Weather: no significant weather observed at this time

METAR text: ZYTX 181430Z 18001MPS 6000 NSC M01/M12 Q1021 NOSIG
Conditions at: ZYTX (SHENYANG/TAOKIAN, CN) observed 1430 UTC 18 February 2019
Temperature: -1.0°C (30°F)
Dewpoint: -12.0°C (10°F) [RH = 43%]
Pressure (altimeter): 30.15 inches Hg (1021.0 mb)
Winds: from the S (180 degrees) at 2 MPH (2 knots; 1.0 m/s)
Visibility: 4 miles ( 6 km)
Ceiling: at least 12,000 feet AGL
Clouds: sky clear below 12,000 feet AGL
Weather: no significant weather observed at this time

METAR text: ZYTX 181400Z 18001MPS 7000 NSC M00/M12 Q1022 NOSIG
Conditions at: ZYTX (SHENYANG/TAOKIAN, CN) observed 1400 UTC 18 February 2019
Temperature: 0.0°C (32°F)
Dewpoint: -12.0°C (10°F) [RH = 40%]
Pressure (altimeter): 30.18 inches Hg (1022.0 mb)
Winds: from the S (180 degrees) at 2 MPH (2 knots; 1.0 m/s)
Visibility: 4 miles ( 7 km)
Ceiling: at least 12,000 feet AGL
Clouds: sky clear below 12,000 feet AGL
Weather: no significant weather observed at this time

METAR text: ZYTX 181330Z 19002MPS 7000 NSC 00/M13 Q1022 NOSIG
Conditions at: ZYTX (SHENYANG/TAOKIAN, CN) observed 1330 UTC 18 February 2019
Temperature: 0.0°C (32°F)
Dewpoint: -13.0°C ( 9°F) [RH = 37%]
Pressure (altimeter): 30.18 inches Hg (1022.0 mb)
Winds: from the S (190 degrees) at 5 MPH (4 knots; 2.1 m/s)
Visibility: 4 miles ( 7 km)
Ceiling: at least 12,000 feet AGL
Clouds: sky clear below 12,000 feet AGL
Weather: no significant weather observed at this time

METAR text: ZYTX 181300Z 19001MPS 7000 NSC 00/M14 Q1022 NOSIG
Conditions at: ZYTX (SHENYANG/TAOKIAN, CN) observed 1300 UTC 18 February 2019
Temperature: 0.0°C (32°F)
Dewpoint: -14.0°C ( 7°F) [RH = 34%]
Pressure (altimeter): 30.18 inches Hg (1022.0 mb)
Winds: from the S (190 degrees) at 2 MPH (2 knots; 1.0 m/s)
Visibility: 4 miles ( 7 km)
Ceiling: at least 12,000 feet AGL
Clouds: sky clear below 12,000 feet AGL
Weather: no significant weather observed at this time

METAR text: ZYTX 181230Z 17001MPS 6000 NSC 00/M14 Q1022 NOSIG
Conditions at: ZYTX (SHENYANG/TAOKIAN, CN) observed 1230 UTC 18 February 2019
Temperature: 0.0°C (32°F)
Dewpoint: -14.0°C ( 7°F) [RH = 34%]
Pressure (altimeter): 30.18 inches Hg (1022.0 mb)
Winds: from the S (170 degrees) at 2 MPH (2 knots; 1.0 m/s)
Visibility: 4 miles ( 6 km)
Ceiling: at least 12,000 feet AGL
Clouds: sky clear below 12,000 feet AGL
Weather: no significant weather observed at this time

METAR text: ZYTX 181200Z 20002MPS 6000 NSC 01/M14 Q1022 NOSIG
Conditions at: ZYTX (SHENYANG/TAOKIAN, CN) observed 1200 UTC 18 February 2019
Temperature: 1.0°C (34°F)
Dewpoint: -14.0°C ( 7°F) [RH = 32%]
Pressure (altimeter): 30.18 inches Hg (1022.0 mb)
Winds: from the SSW (200 degrees) at 5 MPH (4 knots; 2.1 m/s)
Visibility: 4 miles ( 6 km)
Ceiling: at least 12,000 feet AGL
Clouds: sky clear below 12,000 feet AGL
Weather: no significant weather observed at this time

METAR text: ZYTX 181130Z 21002MPS 7000 NSC 01/M14 Q1022 NOSIG
Conditions at: ZYTX (SHENYANG/TAOKIAN, CN) observed 1130 UTC 18 February 2019
Temperature: 1.0°C (34°F)
Dewpoint: -14.0°C ( 7°F) [RH = 32%]
Pressure (altimeter): 30.18 inches Hg (1022.0 mb)
Winds: from the SSW (210 degrees) at 5 MPH (4 knots; 2.1 m/s)
Visibility: 4 miles ( 7 km)
Ceiling: at least 12,000 feet AGL
Clouds: sky clear below 12,000 feet AGL
Weather: no significant weather observed at this time

METAR text: ZYTX 181100Z 23002MPS 8000 NSC 00/M14 Q1022 NOSIG
Conditions at: ZYTX (SHENYANG/TAOKIAN, CN) observed 1100 UTC 18 February 2019
Temperature: 0.0°C (32°F)
Dewpoint: -14.0°C ( 7°F) [RH = 34%]
Pressure (altimeter): 30.18 inches Hg (1022.0 mb)
Winds: from the SW (230 degrees) at 5 MPH (4 knots; 2.1 m/s)
Visibility: 5 miles ( 8 km)
Ceiling: at least 12,000 feet AGL
Clouds: sky clear below 12,000 feet AGL
Weather: no significant weather observed at this time

METAR text: ZYTX 181030Z 21001MPS CAVOK 02/M15 Q1021 NOSIG
Conditions at: ZYTX (SHENYANG/TAOKIAN, CN) observed 1030 UTC 18 February 2019
Temperature: 2.0°C (36°F)
Dewpoint: -15.0°C ( 5°F) [RH = 27%]
Pressure (altimeter): 30.15 inches Hg (1021.0 mb)
Winds: from the SSW (210 degrees) at 2 MPH (2 knots; 1.0 m/s)
Visibility: 6 or more miles (10+ km)
Ceiling: ceiling and visibility are OK
Clouds: unknown
Weather: no significant weather observed at this time

METAR text: ZYTX 181000Z 25003MPS CAVOK 02/M15 Q1021 NOSIG
Conditions at: ZYTX (SHENYANG/TAOKIAN, CN) observed 1000 UTC 18 February 2019
Temperature: 2.0°C (36°F)
Dewpoint: -15.0°C ( 5°F) [RH = 27%]
Pressure (altimeter): 30.15 inches Hg (1021.0 mb)
Winds: from the WSW (250 degrees) at 7 MPH (6 knots; 3.1 m/s)
Visibility: 6 or more miles (10+ km)
Ceiling: ceiling and visibility are OK
Clouds: unknown
Weather: no significant weather observed at this time

METAR text: ZYTX 180930Z 25004MPS CAVOK 03/M16 Q1022 NOSIG
Conditions at: ZYTX (SHENYANG/TAOKIAN, CN) observed 0930 UTC 18 February 2019
Temperature: 3.0°C (37°F)
Dewpoint: -16.0°C ( 3°F) [RH = 23%]
Pressure (altimeter): 30.18 inches Hg (1022.0 mb)
Winds: from the WSW (250 degrees) at 9 MPH (8 knots; 4.1 m/s)
Visibility: 6 or more miles (10+ km)
Ceiling: ceiling and visibility are OK
Clouds: unknown
Weather: no significant weather observed at this time

METAR text: ZYTX 180900Z 25005MPS CAVOK 04/M19 Q1022 NOSIG
Conditions at: ZYTX (SHENYANG/TAOKIAN, CN) observed 0900 UTC 18 February 2019
Temperature: 4.0°C (39°F)
Dewpoint: -19.0°C (-2°F) [RH = 17%]
Pressure (altimeter): 30.18 inches Hg (1022.0 mb)
Winds: from the WSW (250 degrees) at 12 MPH (10 knots; 5.1 m/s)
Visibility: 6 or more miles (10+ km)
Ceiling: ceiling and visibility are OK
Clouds: unknown
Weather: no significant weather observed at this time

METAR text: ZYTX 180830Z 24005MPS CAVOK 05/M19 Q1021 NOSIG
Conditions at: ZYTX (SHENYANG/TAOKIAN, CN) observed 0830 UTC 18 February 2019
Temperature: 5.0°C (41°F)
Dewpoint: -19.0°C (-2°F) [RH = 16%]
Pressure (altimeter): 30.15 inches Hg (1021.0 mb)
Winds: from the WSW (240 degrees) at 12 MPH (10 knots; 5.1 m/s)
Visibility: 6 or more miles (10+ km)
Ceiling: ceiling and visibility are OK
Clouds: unknown
Weather: no significant weather observed at this time

METAR text: ZYTX 180800Z 23004MPS CAVOK 06/M21 Q1021 NOSIG
Conditions at: ZYTX (SHENYANG/TAOKIAN, CN) observed 0800 UTC 18 February 2019
Temperature: 6.0°C (43°F)
Dewpoint: -21.0°C (-6°F) [RH = 12%]
Pressure (altimeter): 30.15 inches Hg (1021.0 mb)
Winds: from the SW (230 degrees) at 9 MPH (8 knots; 4.1 m/s)
Visibility: 6 or more miles (10+ km)
Ceiling: ceiling and visibility are OK
Clouds: unknown
Weather: no significant weather observed at this time

METAR text: ZYTX 180730Z 22003MPS 190V250 CAVOK 06/M20 Q1021 NOSIG
Conditions at: ZYTX (SHENYANG/TAOKIAN, CN) observed 0730 UTC 18 February 2019
Temperature: 6.0°C (43°F)
Dewpoint: -20.0°C (-4°F) [RH = 13%]
Pressure (altimeter): 30.15 inches Hg (1021.0 mb)
Winds: from the SW (220 degrees) at 7 MPH (6 knots; 3.1 m/s)
Visibility: 6 or more miles (10+ km)
Ceiling: ceiling and visibility are OK
Clouds: unknown
Weather: no significant weather observed at this time

METAR text: ZYTX 180700Z 24003MPS 210V270 CAVOK 07/M20 Q1021 NOSIG
Conditions at: ZYTX (SHENYANG/TAOKIAN, CN) observed 0700 UTC 18 February 2019
Temperature: 7.0°C (45°F)
Dewpoint: -20.0°C (-4°F) [RH = 13%]
Pressure (altimeter): 30.15 inches Hg (1021.0 mb)
Winds: from the WSW (240 degrees) at 7 MPH (6 knots; 3.1 m/s)
Visibility: 6 or more miles (10+ km)
Ceiling: ceiling and visibility are OK
Clouds: unknown
Weather: no significant weather observed at this time

METAR text: ZYTX 180630Z 25003MPS 220V290 CAVOK 07/M20 Q1021 NOSIG
Conditions at: ZYTX (SHENYANG/TAOKIAN, CN) observed 0630 UTC 18 February 2019
Temperature: 7.0°C (45°F)
Dewpoint: -20.0°C (-4°F) [RH = 13%]
Pressure (altimeter): 30.15 inches Hg (1021.0 mb)
Winds: from the WSW (250 degrees) at 7 MPH (6 knots; 3.1 m/s)
Visibility: 6 or more miles (10+ km)
Ceiling: ceiling and visibility are OK
Clouds: unknown
Weather: no significant weather observed at this time

METAR text: ZYTX 180600Z 23004MPS 170V260 CAVOK 07/M21 Q1022 NOSIG
Conditions at: ZYTX (SHENYANG/TAOKIAN, CN) observed 0600 UTC 18 February 2019
Temperature: 7.0°C (45°F)
Dewpoint: -21.0°C (-6°F) [RH = 11%]
Pressure (altimeter): 30.18 inches Hg (1022.0 mb)
Winds: from the SW (230 degrees) at 9 MPH (8 knots; 4.1 m/s)
Visibility: 6 or more miles (10+ km)
Ceiling: ceiling and visibility are OK
Clouds: unknown
Weather: no significant weather observed at this time

METAR text: ZYTX 180530Z 22003MPS 180V260 CAVOK 07/M21 Q1022 NOSIG
Conditions at: ZYTX (SHENYANG/TAOKIAN, CN) observed 0530 UTC 18 February 2019
Temperature: 7.0°C (45°F)
Dewpoint: -21.0°C (-6°F) [RH = 11%]
Pressure (altimeter): 30.18 inches Hg (1022.0 mb)
Winds: from the SW (220 degrees) at 7 MPH (6 knots; 3.1 m/s)
Visibility: 6 or more miles (10+ km)
Ceiling: ceiling and visibility are OK
Clouds: unknown
Weather: no significant weather observed at this time

METAR text: ZYTX 180500Z 23003MPS 190V270 CAVOK 06/M20 Q1023 NOSIG
Conditions at: ZYTX (SHENYANG/TAOKIAN, CN) observed 0500 UTC 18 February 2019
Temperature: 6.0°C (43°F)
Dewpoint: -20.0°C (-4°F) [RH = 13%]
Pressure (altimeter): 30.21 inches Hg (1023.0 mb)
Winds: from the SW (230 degrees) at 7 MPH (6 knots; 3.1 m/s)
Visibility: 6 or more miles (10+ km)
Ceiling: ceiling and visibility are OK
Clouds: unknown
Weather: no significant weather observed at this time

METAR text: ZYTX 180430Z 22003MPS 170V280 CAVOK 06/M20 Q1023 NOSIG
Conditions at: ZYTX (SHENYANG/TAOKIAN, CN) observed 0430 UTC 18 February 2019
Temperature: 6.0°C (43°F)
Dewpoint: -20.0°C (-4°F) [RH = 13%]
Pressure (altimeter): 30.21 inches Hg (1023.0 mb)
Winds: from the SW (220 degrees) at 7 MPH (6 knots; 3.1 m/s)
Visibility: 6 or more miles (10+ km)
Ceiling: ceiling and visibility are OK
Clouds: unknown
Weather: no significant weather observed at this time

METAR text: ZYTX 180400Z 20003MPS 170V250 CAVOK 05/M20 Q1023 NOSIG
Conditions at: ZYTX (SHENYANG/TAOKIAN, CN) observed 0400 UTC 18 February 2019
Temperature: 5.0°C (41°F)
Dewpoint: -20.0°C (-4°F) [RH = 14%]
Pressure (altimeter): 30.21 inches Hg (1023.0 mb)
Winds: from the SSW (200 degrees) at 7 MPH (6 knots; 3.1 m/s)
Visibility: 6 or more miles (10+ km)
Ceiling: ceiling and visibility are OK
Clouds: unknown
Weather: no significant weather observed at this time

METAR text: ZYTX 180330Z 22003MPS 170V270 CAVOK 05/M20 Q1024 NOSIG
Conditions at: ZYTX (SHENYANG/TAOKIAN, CN) observed 0330 UTC 18 February 2019
Temperature: 5.0°C (41°F)
Dewpoint: -20.0°C (-4°F) [RH = 14%]
Pressure (altimeter): 30.24 inches Hg (1024.0 mb)
Winds: from the SW (220 degrees) at 7 MPH (6 knots; 3.1 m/s)
Visibility: 6 or more miles (10+ km)
Ceiling: ceiling and visibility are OK
Clouds: unknown
Weather: no significant weather observed at this time

METAR text: ZYTX 180300Z VRB02MPS CAVOK 04/M18 Q1024 NOSIG
Conditions at: ZYTX (SHENYANG/TAOKIAN, CN) observed 0300 UTC 18 February 2019
Temperature: 4.0°C (39°F)
Dewpoint: -18.0°C (-0°F) [RH = 18%]
Pressure (altimeter): 30.24 inches Hg (1024.0 mb)
Winds: variable direction winds at 5 MPH (4 knots; 2.1 m/s)
Visibility: 6 or more miles (10+ km)
Ceiling: ceiling and visibility are OK
Clouds: unknown
Weather: no significant weather observed at this time

METAR text: ZYTX 180230Z 19002MPS 110V260 CAVOK 03/M17 Q1025 NOSIG
Conditions at: ZYTX (SHENYANG/TAOKIAN, CN) observed 0230 UTC 18 February 2019
Temperature: 3.0°C (37°F)
Dewpoint: -17.0°C ( 1°F) [RH = 21%]
Pressure (altimeter): 30.27 inches Hg (1025.0 mb)
Winds: from the S (190 degrees) at 5 MPH (4 knots; 2.1 m/s)
Visibility: 6 or more miles (10+ km)
Ceiling: ceiling and visibility are OK
Clouds: unknown
Weather: no significant weather observed at this time

METAR text: ZYTX 180200Z VRB01MPS CAVOK 02/M15 Q1025 NOSIG
Conditions at: ZYTX (SHENYANG/TAOKIAN, CN) observed 0200 UTC 18 February 2019
Temperature: 2.0°C (36°F)
Dewpoint: -15.0°C ( 5°F) [RH = 27%]
Pressure (altimeter): 30.27 inches Hg (1025.0 mb)
Winds: variable direction winds at 2 MPH (2 knots; 1.0 m/s)
Visibility: 6 or more miles (10+ km)
Ceiling: ceiling and visibility are OK
Clouds: unknown
Weather: no significant weather observed at this time

METAR text: ZYTX 180130Z VRB01MPS CAVOK M00/M13 Q1025 NOSIG
Conditions at: ZYTX (SHENYANG/TAOKIAN, CN) observed 0130 UTC 18 February 2019
Temperature: 0.0°C (32°F)
Dewpoint: -13.0°C ( 9°F) [RH = 37%]
Pressure (altimeter): 30.27 inches Hg (1025.0 mb)
Winds: variable direction winds at 2 MPH (2 knots; 1.0 m/s)
Visibility: 6 or more miles (10+ km)
Ceiling: ceiling and visibility are OK
Clouds: unknown
Weather: no significant weather observed at this time

METAR text: ZYTX 180100Z 15002MPS 120V190 CAVOK M02/M14 Q1025 NOSIG
Conditions at: ZYTX (SHENYANG/TAOKIAN, CN) observed 0100 UTC 18 February 2019
Temperature: -2.0°C (28°F)
Dewpoint: -14.0°C ( 7°F) [RH = 39%]
Pressure (altimeter): 30.27 inches Hg (1025.0 mb)
Winds: from the SSE (150 degrees) at 5 MPH (4 knots; 2.1 m/s)
Visibility: 6 or more miles (10+ km)
Ceiling: ceiling and visibility are OK
Clouds: unknown
Weather: no significant weather observed at this time

METAR text: ZYTX 180030Z 13002MPS CAVOK M04/M14 Q1025 NOSIG
Conditions at: ZYTX (SHENYANG/TAOKIAN, CN) observed 0030 UTC 18 February 2019
Temperature: -4.0°C (25°F)
Dewpoint: -14.0°C ( 7°F) [RH = 46%]
Pressure (altimeter): 30.27 inches Hg (1025.0 mb)
Winds: from the SE (130 degrees) at 5 MPH (4 knots; 2.1 m/s)
Visibility: 6 or more miles (10+ km)
Ceiling: ceiling and visibility are OK
Clouds: unknown
Weather: no significant weather observed at this time

METAR text: ZYTX 180000Z 13002MPS 100V160 CAVOK M05/M14 Q1025 NOSIG
Conditions at: ZYTX (SHENYANG/TAOKIAN, CN) observed 0000 UTC 18 February 2019
Temperature: -5.0°C (23°F)
Dewpoint: -14.0°C ( 7°F) [RH = 49%]
Pressure (altimeter): 30.27 inches Hg (1025.0 mb)
Winds: from the SE (130 degrees) at 5 MPH (4 knots; 2.1 m/s)
Visibility: 6 or more miles (10+ km)
Ceiling: ceiling and visibility are OK
Clouds: unknown
Weather: no significant weather observed at this time

METAR text: ZYTX 172330Z 12002MPS CAVOK M07/M15 Q1024 NOSIG
Conditions at: ZYTX (SHENYANG/TAOKIAN, CN) observed 2330 UTC 17 February 2019
Temperature: -7.0°C (19°F)
Dewpoint: -15.0°C ( 5°F) [RH = 53%]
Pressure (altimeter): 30.24 inches Hg (1024.0 mb)
Winds: from the ESE (120 degrees) at 5 MPH (4 knots; 2.1 m/s)
Visibility: 6 or more miles (10+ km)
Ceiling: ceiling and visibility are OK
Clouds: unknown
Weather: no significant weather observed at this time

METAR text: ZYTX 172300Z 07002MPS CAVOK M10/M17 Q1024 NOSIG
Conditions at: ZYTX (SHENYANG/TAOKIAN, CN) observed 2300 UTC 17 February 2019
Temperature: -10.0°C (14°F)
Dewpoint: -17.0°C ( 1°F) [RH = 57%]
Pressure (altimeter): 30.24 inches Hg (1024.0 mb)
Winds: from the ENE (70 degrees) at 5 MPH (4 knots; 2.1 m/s)
Visibility: 6 or more miles (10+ km)
Ceiling: ceiling and visibility are OK
Clouds: unknown
Weather: no significant weather observed at this time

METAR text: ZYTX 172230Z VRB01MPS CAVOK M09/M16 Q1024 NOSIG
Conditions at: ZYTX (SHENYANG/TAOKIAN, CN) observed 2230 UTC 17 February 2019
Temperature: -9.0°C (16°F)
Dewpoint: -16.0°C ( 3°F) [RH = 57%]
Pressure (altimeter): 30.24 inches Hg (1024.0 mb)
Winds: variable direction winds at 2 MPH (2 knots; 1.0 m/s)
Visibility: 6 or more miles (10+ km)
Ceiling: ceiling and visibility are OK
Clouds: unknown
Weather: no significant weather observed at this time

METAR text: ZYTX 172200Z VRB01MPS CAVOK M11/M18 Q1024 NOSIG
Conditions at: ZYTX (SHENYANG/TAOKIAN, CN) observed 2200 UTC 17 February 2019
Temperature: -11.0°C (12°F)
Dewpoint: -18.0°C (-0°F) [RH = 56%]
Pressure (altimeter): 30.24 inches Hg (1024.0 mb)
Winds: variable direction winds at 2 MPH (2 knots; 1.0 m/s)
Visibility: 6 or more miles (10+ km)
Ceiling: ceiling and visibility are OK
Clouds: unknown
Weather: no significant weather observed at this time

METAR text: ZYTX 172130Z VRB01MPS CAVOK M12/M18 Q1024 NOSIG
Conditions at: ZYTX (SHENYANG/TAOKIAN, CN) observed 2130 UTC 17 February 2019
Temperature: -12.0°C (10°F)
Dewpoint: -18.0°C (-0°F) [RH = 61%]
Pressure (altimeter): 30.24 inches Hg (1024.0 mb)
Winds: variable direction winds at 2 MPH (2 knots; 1.0 m/s)
Visibility: 6 or more miles (10+ km)
Ceiling: ceiling and visibility are OK
Clouds: unknown
Weather: no significant weather observed at this time

METAR text: ZYTX 172100Z 00000MPS CAVOK M12/M17 Q1024 NOSIG
Conditions at: ZYTX (SHENYANG/TAOKIAN, CN) observed 2100 UTC 17 February 2019
Temperature: -12.0°C (10°F)
Dewpoint: -17.0°C ( 1°F) [RH = 66%]
Pressure (altimeter): 30.24 inches Hg (1024.0 mb)
Winds: calm
Visibility: 6 or more miles (10+ km)
Ceiling: ceiling and visibility are OK
Clouds: unknown
Weather: no significant weather observed at this time

METAR text: ZYTX 172030Z VRB01MPS CAVOK M12/M18 Q1025 NOSIG
Conditions at: ZYTX (SHENYANG/TAOKIAN, CN) observed 2030 UTC 17 February 2019
Temperature: -12.0°C (10°F)
Dewpoint: -18.0°C (-0°F) [RH = 61%]
Pressure (altimeter): 30.27 inches Hg (1025.0 mb)
Winds: variable direction winds at 2 MPH (2 knots; 1.0 m/s)
Visibility: 6 or more miles (10+ km)
Ceiling: ceiling and visibility are OK
Clouds: unknown
Weather: no significant weather observed at this time

METAR text: ZYTX 172000Z 13002MPS CAVOK M11/M17 Q1024 NOSIG
Conditions at: ZYTX (SHENYANG/TAOKIAN, CN) observed 2000 UTC 17 February 2019
Temperature: -11.0°C (12°F)
Dewpoint: -17.0°C ( 1°F) [RH = 61%]
Pressure (altimeter): 30.24 inches Hg (1024.0 mb)
Winds: from the SE (130 degrees) at 5 MPH (4 knots; 2.1 m/s)
Visibility: 6 or more miles (10+ km)
Ceiling: ceiling and visibility are OK
Clouds: unknown
Weather: no significant weather observed at this time

METAR text: ZYTX 171930Z 13002MPS CAVOK M09/M17 Q1024 NOSIG
Conditions at: ZYTX (SHENYANG/TAOKIAN, CN) observed 1930 UTC 17 February 2019
Temperature: -9.0°C (16°F)
Dewpoint: -17.0°C ( 1°F) [RH = 52%]
Pressure (altimeter): 30.24 inches Hg (1024.0 mb)
Winds: from the SE (130 degrees) at 5 MPH (4 knots; 2.1 m/s)
Visibility: 6 or more miles (10+ km)
Ceiling: ceiling and visibility are OK
Clouds: unknown
Weather: no significant weather observed at this time

METAR text: ZYTX 171900Z 13002MPS CAVOK M09/M16 Q1025 NOSIG
Conditions at: ZYTX (SHENYANG/TAOKIAN, CN) observed 1900 UTC 17 February 2019
Temperature: -9.0°C (16°F)
Dewpoint: -16.0°C ( 3°F) [RH = 57%]
Pressure (altimeter): 30.27 inches Hg (1025.0 mb)
Winds: from the SE (130 degrees) at 5 MPH (4 knots; 2.1 m/s)
Visibility: 6 or more miles (10+ km)
Ceiling: ceiling and visibility are OK
Clouds: unknown
Weather: no significant weather observed at this time

METAR text: ZYTX 171830Z 14001MPS CAVOK M11/M18 Q1025 NOSIG
Conditions at: ZYTX (SHENYANG/TAOKIAN, CN) observed 1830 UTC 17 February 2019
Temperature: -11.0°C (12°F)
Dewpoint: -18.0°C (-0°F) [RH = 56%]
Pressure (altimeter): 30.27 inches Hg (1025.0 mb)
Winds: from the SE (140 degrees) at 2 MPH (2 knots; 1.0 m/s)
Visibility: 6 or more miles (10+ km)
Ceiling: ceiling and visibility are OK
Clouds: unknown
Weather: no significant weather observed at this time

METAR text: ZYTX 171800Z 00000MPS CAVOK M11/M17 Q1025 NOSIG
Conditions at: ZYTX (SHENYANG/TAOKIAN, CN) observed 1800 UTC 17 February 2019
Temperature: -11.0°C (12°F)
Dewpoint: -17.0°C ( 1°F) [RH = 61%]
Pressure (altimeter): 30.27 inches Hg (1025.0 mb)
Winds: calm
Visibility: 6 or more miles (10+ km)
Ceiling: ceiling and visibility are OK
Clouds: unknown
Weather: no significant weather observed at this time

METAR text: ZYTX 171730Z 15002MPS CAVOK M10/M17 Q1025 NOSIG
Conditions at: ZYTX (SHENYANG/TAOKIAN, CN) observed 1730 UTC 17 February 2019
Temperature: -10.0°C (14°F)
Dewpoint: -17.0°C ( 1°F) [RH = 57%]
Pressure (altimeter): 30.27 inches Hg (1025.0 mb)
Winds: from the SSE (150 degrees) at 5 MPH (4 knots; 2.1 m/s)
Visibility: 6 or more miles (10+ km)
Ceiling: ceiling and visibility are OK
Clouds: unknown
Weather: no significant weather observed at this time

Forecast for: ZYTX (SHENYANG/TAOKIAN, CN)
Text: TAF ZYTX 190118Z 1906/2006 22004MPS 6000 NSC TX03/1906Z TNM07/21Z
Forecast period: 0600 UTC 19 February 2019 to 0000 UTC 20 February 2019
Forecast type: FROM: standard forecast or significant change
Winds: from the SW (220 degrees) at 9 MPH (8 knots; 4.1 m/s)
Visibility: 4 miles (6 km)
Ceiling: unknown
Clouds: missing
Weather: no significant weather forecast for this period
Text: BECMG 2000/2001 34004MPS
Forecast period: 0000 to 0600 UTC 20 February 2019
Forecast type: BECOMING: Conditions expected to become as follows by 0100 UTC 20 February 2019
Winds: from the NNW (340 degrees) at 9 MPH (8 knots; 4.1 m/s)
Visibility: 4 miles (6 km)
Ceiling: unknown
Clouds: missing
Weather: no significant weather forecast for this period
Text: TEMPO 1906/1912 3000 -SN OVC030
Forecast period: 0600 to 1200 UTC 19 February 2019
Forecast type: TEMPORARY: The following changes expected for less than half the time period
Visibility: 1.86 miles (2.99 km)
Ceiling: 3000 feet AGL
Clouds: overcast cloud deck at 3000 feet AGL
Weather: -SN  (light snow)